Time;durP1;ratioP1;P1;durP2;ratioP2;P2;SDS_P1;SDS_P2;PMS_P1;PMS_P2;Temp;Humidity;BMP_temperature;BMP_pressure;BME280_temperature;BME280_humidity;BME280_pressure;Samples;Min_cycle;Max_cycle;Signal;HPM_P1;HPM_P2
2024/03/28 00:01:07;;;;;;;10.13;5.85;;;6.10;99.90;;;;;;5015539;28;20041;-81
2024/03/28 00:03:34;;;;;;;6.18;3.60;;;6.20;99.90;;;;;;5017631;28;20041;-81
2024/03/28 00:06:00;;;;;;;6.45;4.45;;;6.20;99.90;;;;;;5015805;28;20075;-82
2024/03/28 00:08:28;;;;;;;7.75;3.55;;;6.30;99.90;;;;;;5015440;28;20137;-82
2024/03/28 00:10:55;;;;;;;8.40;5.25;;;6.20;99.90;;;;;;5015731;28;20044;-82
2024/03/28 00:13:22;;;;;;;7.65;3.95;;;6.20;99.90;;;;;;5019717;28;20047;-82
2024/03/28 00:16:04;;;;;;;8.15;3.85;;;6.20;99.90;;;;;;5016520;28;20076;-81
2024/03/28 00:18:30;;;;;;;5.50;3.40;;;6.20;99.90;;;;;;5018038;28;20377;-81
2024/03/28 00:21:01;;;;;;;5.72;3.88;;;6.20;99.90;;;;;;5018203;28;20116;-82
2024/03/28 00:23:27;;;;;;;5.70;3.42;;;6.20;99.90;;;;;;5024482;28;20032;-82
2024/03/28 00:25:57;;;;;;;6.43;3.65;;;6.10;99.90;;;;;;5026676;28;20059;-81
2024/03/28 00:28:24;;;;;;;6.65;4.05;;;6.00;99.90;;;;;;5017182;28;20090;-82
2024/03/28 00:30:50;;;;;;;6.90;4.30;;;6.00;99.90;;;;;;5022658;28;20056;-81
2024/03/28 00:33:16;;;;;;;7.05;3.92;;;6.30;99.90;;;;;;5017827;28;20033;-82
2024/03/28 00:35:42;;;;;;;7.15;3.25;;;6.30;99.90;;;;;;5018029;28;20096;-82
2024/03/28 00:38:09;;;;;;;5.97;3.30;;;6.40;99.90;;;;;;5027551;28;20466;-82
2024/03/28 00:40:37;;;;;;;5.25;3.42;;;6.40;99.90;;;;;;5025543;28;20029;-82
2024/03/28 00:43:03;;;;;;;7.10;2.90;;;6.40;99.90;;;;;;5019008;28;20162;-81
2024/03/28 00:45:29;;;;;;;5.30;3.00;;;6.40;99.90;;;;;;5032332;28;20060;-82
2024/03/28 00:47:55;;;;;;;7.53;3.40;;;6.40;99.90;;;;;;5020788;28;20037;-81
2024/03/28 00:50:21;;;;;;;9.35;4.15;;;6.40;99.90;;;;;;5020366;28;20047;-82
2024/03/28 00:52:47;;;;;;;6.28;4.07;;;6.50;99.90;;;;;;5018740;28;20087;-81
2024/03/28 00:55:13;;;;;;;7.97;3.58;;;6.50;99.90;;;;;;5019254;28;20041;-82
2024/03/28 00:57:39;;;;;;;5.70;3.70;;;6.40;99.90;;;;;;5024718;28;20048;-82
2024/03/28 01:00:06;;;;;;;5.50;3.85;;;6.40;99.90;;;;;;5018085;28;20073;-81
2024/03/28 01:02:31;;;;;;;6.00;3.50;;;6.30;99.90;;;;;;5026223;28;20088;-83
2024/03/28 01:04:57;;;;;;;5.53;3.45;;;6.40;99.90;;;;;;5021644;28;20044;-82
2024/03/28 01:07:23;;;;;;;6.88;3.58;;;6.50;99.90;;;;;;5027467;28;20540;-82
2024/03/28 01:09:49;;;;;;;5.88;3.90;;;6.60;99.90;;;;;;5025130;28;20040;-82
2024/03/28 01:12:15;;;;;;;5.70;3.83;;;6.70;99.90;;;;;;5017155;28;20038;-82
2024/03/28 01:14:41;;;;;;;6.60;3.90;;;6.80;99.90;;;;;;5020402;28;20064;-82
2024/03/28 01:17:06;;;;;;;5.28;3.60;;;6.80;99.90;;;;;;5017288;28;20033;-82
2024/03/28 01:19:32;;;;;;;8.57;4.95;;;6.90;99.90;;;;;;5011039;28;20045;-82
2024/03/28 01:21:58;;;;;;;6.72;4.65;;;6.80;99.90;;;;;;5016481;28;20057;-82
2024/03/28 01:24:23;;;;;;;7.15;4.53;;;6.80;99.90;;;;;;5021706;28;20723;-81
2024/03/28 01:26:49;;;;;;;6.32;4.13;;;6.80;99.90;;;;;;5018386;28;20535;-82
2024/03/28 01:29:14;;;;;;;6.68;4.40;;;6.80;99.90;;;;;;5024690;28;20029;-82
2024/03/28 01:31:40;;;;;;;6.53;3.45;;;6.80;99.90;;;;;;5024144;28;20029;-82
2024/03/28 01:34:06;;;;;;;5.40;3.58;;;6.70;99.90;;;;;;5020831;28;20629;-82
2024/03/28 01:36:31;;;;;;;6.68;4.55;;;6.70;99.90;;;;;;5023187;28;20151;-82
2024/03/28 01:38:57;;;;;;;6.03;3.50;;;6.90;99.90;;;;;;5016978;28;20462;-81
2024/03/28 01:41:23;;;;;;;5.35;3.45;;;6.90;99.90;;;;;;5017969;28;20096;-82
2024/03/28 01:43:48;;;;;;;7.60;3.92;;;7.00;99.90;;;;;;5026098;28;20033;-82
2024/03/28 01:46:17;;;;;;;5.75;3.70;;;6.90;99.90;;;;;;5016888;28;20030;-82
2024/03/28 01:48:46;;;;;;;6.57;3.40;;;6.80;99.90;;;;;;5018007;28;20037;-82
2024/03/28 01:51:12;;;;;;;4.32;3.10;;;6.80;99.90;;;;;;5024138;28;20047;-82
2024/03/28 01:53:39;;;;;;;5.00;2.90;;;6.90;99.90;;;;;;5021900;28;20096;-81
2024/03/28 01:56:05;;;;;;;4.40;2.42;;;6.90;99.90;;;;;;5020024;28;20033;-82
2024/03/28 01:58:32;;;;;;;3.95;1.80;;;6.80;99.90;;;;;;5021650;28;20150;-82
2024/03/28 02:00:59;;;;;;;4.57;1.90;;;7.00;99.90;;;;;;5016977;28;20489;-82
2024/03/28 02:03:24;;;;;;;3.35;1.67;;;7.20;99.90;;;;;;5016586;28;20041;-82
2024/03/28 02:05:51;;;;;;;3.08;1.50;;;7.10;99.90;;;;;;5019980;28;20048;-82
2024/03/28 02:08:17;;;;;;;3.42;1.83;;;7.10;99.90;;;;;;5016477;28;20064;-82
2024/03/28 02:10:44;;;;;;;4.72;2.22;;;7.20;99.90;;;;;;5015869;28;20029;-82
2024/03/28 02:13:11;;;;;;;4.22;1.42;;;7.20;99.90;;;;;;5015907;28;20033;-82
2024/03/28 02:15:37;;;;;;;2.95;1.65;;;7.20;99.90;;;;;;5025482;28;20054;-82
2024/03/28 02:18:03;;;;;;;5.07;2.13;;;7.10;99.90;;;;;;5015606;28;20041;-82
2024/03/28 02:20:29;;;;;;;4.18;1.67;;;7.10;99.90;;;;;;5015770;28;20033;-82
2024/03/28 02:22:55;;;;;;;2.70;1.50;;;7.10;99.90;;;;;;5016660;28;20042;-82
2024/03/28 02:25:20;;;;;;;3.88;1.90;;;7.20;99.90;;;;;;5015842;28;20025;-82
2024/03/28 02:27:46;;;;;;;3.80;1.80;;;7.10;99.90;;;;;;5015966;28;20030;-82
2024/03/28 02:30:12;;;;;;;5.35;2.00;;;7.10;99.90;;;;;;5028134;28;20037;-82
2024/03/28 02:32:38;;;;;;;3.35;1.65;;;7.00;99.90;;;;;;5022735;28;20471;-82
2024/03/28 02:35:07;;;;;;;3.88;1.58;;;7.00;99.90;;;;;;5021343;28;20099;-82
2024/03/28 02:37:33;;;;;;;2.63;1.38;;;7.10;99.90;;;;;;5020965;28;20079;-82
2024/03/28 02:40:01;;;;;;;4.30;1.50;;;7.20;99.90;;;;;;5021965;28;20052;-82
2024/03/28 02:42:27;;;;;;;2.97;1.55;;;6.90;99.90;;;;;;5017406;28;20037;-82
2024/03/28 02:44:52;;;;;;;4.57;2.38;;;6.90;99.90;;;;;;5016371;28;20065;-82
2024/03/28 02:47:18;;;;;;;4.05;1.90;;;7.00;99.90;;;;;;5017630;28;20033;-82
2024/03/28 02:49:44;;;;;;;4.18;2.10;;;7.10;99.90;;;;;;5017237;28;20120;-82
2024/03/28 02:52:10;;;;;;;5.15;2.88;;;7.20;99.90;;;;;;5023125;28;20558;-81
2024/03/28 02:54:36;;;;;;;5.68;3.47;;;7.00;99.90;;;;;;5019014;28;20037;-81
2024/03/28 02:57:03;;;;;;;5.43;3.05;;;6.90;99.90;;;;;;5020148;28;20510;-82
2024/03/28 02:59:30;;;;;;;6.72;3.70;;;6.90;99.90;;;;;;5016699;28;20098;-81
2024/03/28 03:01:56;;;;;;;6.50;3.83;;;6.90;99.90;;;;;;5018190;28;20095;-80
2024/03/28 03:04:23;;;;;;;5.60;3.28;;;7.00;99.90;;;;;;5023737;28;20033;-81
2024/03/28 03:06:49;;;;;;;4.75;2.80;;;7.00;99.90;;;;;;5022205;28;20471;-81
2024/03/28 03:09:15;;;;;;;5.18;3.17;;;7.00;99.90;;;;;;5015506;28;20044;-80
2024/03/28 03:11:41;;;;;;;4.85;2.95;;;7.10;99.90;;;;;;5017513;28;20519;-80
2024/03/28 03:14:07;;;;;;;4.78;2.70;;;7.10;99.90;;;;;;5024171;28;20073;-81
2024/03/28 03:16:33;;;;;;;5.45;2.92;;;7.00;99.90;;;;;;5015463;28;20045;-80
2024/03/28 03:19:04;;;;;;;4.60;2.67;;;7.00;99.90;;;;;;5014435;28;20039;-80
2024/03/28 03:21:29;;;;;;;5.38;2.10;;;7.10;99.90;;;;;;5025251;28;20530;-81
2024/03/28 03:24:00;;;;;;;7.15;2.00;;;7.10;99.90;;;;;;5023805;28;23213;-80
2024/03/28 03:26:30;;;;;;;4.10;2.53;;;7.20;99.90;;;;;;5023649;28;20038;-79
2024/03/28 03:34:36;;;;;;;6.45;2.67;;;7.00;99.90;;;;;;5024029;28;20475;-80
2024/03/28 03:37:19;;;;;;;5.20;1.85;;;7.00;99.90;;;;;;5030946;28;20041;-80
2024/03/28 03:39:45;;;;;;;2.83;1.30;;;7.10;99.90;;;;;;5017105;28;20029;-80
2024/03/28 03:42:11;;;;;;;2.45;1.30;;;7.20;99.90;;;;;;5016674;28;20128;-81
2024/03/28 03:44:37;;;;;;;4.00;1.35;;;7.10;99.90;;;;;;5020365;28;20049;-80
2024/03/28 03:47:03;;;;;;;3.95;1.83;;;7.20;99.90;;;;;;5021577;28;20041;-81
2024/03/28 03:49:29;;;;;;;4.13;1.90;;;7.10;99.90;;;;;;5018951;28;20399;-81
2024/03/28 03:51:55;;;;;;;5.05;2.30;;;7.10;99.90;;;;;;5019966;28;20034;-80
2024/03/28 03:54:20;;;;;;;4.00;2.08;;;6.80;99.90;;;;;;5018491;28;20100;-80
2024/03/28 03:56:46;;;;;;;4.35;2.15;;;6.90;99.90;;;;;;5019105;28;20410;-80
2024/03/28 03:59:12;;;;;;;3.95;1.70;;;6.80;99.90;;;;;;5019907;28;20038;-80
2024/03/28 04:01:37;;;;;;;6.47;2.13;;;6.80;99.90;;;;;;5025311;28;20148;-81
2024/03/28 04:04:04;;;;;;;3.53;1.63;;;6.80;99.90;;;;;;5018722;28;20129;-80
2024/03/28 04:06:30;;;;;;;6.00;1.58;;;6.90;99.90;;;;;;5016401;28;20056;-81
2024/03/28 04:08:55;;;;;;;2.80;1.30;;;6.90;99.90;;;;;;5016154;28;20127;-81
2024/03/28 04:11:21;;;;;;;3.22;1.15;;;6.90;99.90;;;;;;5014658;28;20191;-82
2024/03/28 04:13:47;;;;;;;2.28;1.20;;;6.90;99.90;;;;;;5018120;28;20388;-81
2024/03/28 04:16:13;;;;;;;3.88;1.70;;;6.90;99.90;;;;;;5016316;28;20625;-81
2024/03/28 04:18:38;;;;;;;4.53;1.33;;;6.80;99.90;;;;;;5017681;28;20030;-82
2024/03/28 04:21:04;;;;;;;4.97;1.90;;;6.80;99.90;;;;;;5018315;28;20048;-82
2024/03/28 04:23:30;;;;;;;3.45;1.95;;;6.80;99.90;;;;;;5025528;28;20037;-81
2024/03/28 04:25:57;;;;;;;2.95;1.40;;;6.70;99.90;;;;;;5014717;28;20037;-82
2024/03/28 04:28:23;;;;;;;3.53;1.15;;;6.70;99.90;;;;;;5011533;28;20068;-82
2024/03/28 04:30:50;;;;;;;5.28;1.80;;;6.70;99.90;;;;;;5020785;28;20120;-81
2024/03/28 04:33:17;;;;;;;4.57;1.92;;;6.60;99.90;;;;;;5017440;28;20177;-82
2024/03/28 04:35:45;;;;;;;4.45;2.45;;;6.50;99.90;;;;;;5022414;28;20966;-81
2024/03/28 04:38:11;;;;;;;5.70;2.92;;;6.40;99.90;;;;;;5017010;28;20543;-82
2024/03/28 04:40:37;;;;;;;4.70;2.50;;;6.30;99.90;;;;;;5028730;28;20109;-81
2024/03/28 04:43:03;;;;;;;9.73;2.50;;;6.30;99.90;;;;;;5028218;28;20036;-82
2024/03/28 04:45:28;;;;;;;4.55;2.92;;;6.40;99.90;;;;;;5027964;28;20048;-83
2024/03/28 04:47:54;;;;;;;3.97;2.28;;;6.50;99.90;;;;;;5019367;28;20400;-82
2024/03/28 04:50:20;;;;;;;3.88;2.30;;;6.50;99.90;;;;;;5014562;28;20502;-82
2024/03/28 04:52:47;;;;;;;4.82;2.38;;;6.50;99.90;;;;;;5018128;28;20224;-82
2024/03/28 04:55:13;;;;;;;4.47;2.47;;;6.50;99.90;;;;;;5021943;28;20323;-82
2024/03/28 04:57:39;;;;;;;4.22;2.47;;;6.40;99.90;;;;;;5020181;28;20043;-82
2024/03/28 05:00:09;;;;;;;5.75;2.92;;;6.40;99.90;;;;;;5022245;28;20021;-81
2024/03/28 05:02:35;;;;;;;5.43;2.85;;;6.40;99.90;;;;;;5024630;28;20059;-81
2024/03/28 05:05:04;;;;;;;5.78;2.60;;;6.30;99.90;;;;;;5025305;28;20506;-83
2024/03/28 05:07:30;;;;;;;4.85;2.88;;;6.30;99.90;;;;;;5019312;28;20041;-81
2024/03/28 05:09:55;;;;;;;4.25;2.55;;;6.20;99.90;;;;;;5024723;28;20088;-82
2024/03/28 05:12:21;;;;;;;4.68;2.63;;;6.00;99.90;;;;;;5023518;28;20068;-82
2024/03/28 05:14:46;;;;;;;5.75;2.78;;;6.00;99.90;;;;;;5023690;28;20158;-82
2024/03/28 05:17:12;;;;;;;5.65;2.40;;;6.00;99.90;;;;;;5015554;28;20510;-82
2024/03/28 05:19:38;;;;;;;4.50;2.63;;;6.00;99.90;;;;;;5016542;28;20060;-81
2024/03/28 05:22:04;;;;;;;4.75;2.78;;;6.00;99.90;;;;;;5038043;28;20544;-82
2024/03/28 05:24:30;;;;;;;4.30;2.60;;;6.00;99.90;;;;;;5020336;28;20076;-83
2024/03/28 05:26:56;;;;;;;5.88;3.47;;;6.10;99.90;;;;;;5016981;28;20087;-85
2024/03/28 05:29:23;;;;;;;5.55;2.90;;;6.10;99.90;;;;;;5022993;28;20037;-82
2024/03/28 05:31:48;;;;;;;5.05;3.35;;;6.10;99.90;;;;;;5023088;28;20067;-81
2024/03/28 05:34:14;;;;;;;5.30;2.85;;;6.10;99.90;;;;;;5017443;28;20510;-81
2024/03/28 05:36:41;;;;;;;5.63;2.45;;;6.00;99.90;;;;;;5026499;28;20033;-81
2024/03/28 05:39:08;;;;;;;4.75;2.50;;;6.10;99.90;;;;;;5015723;28;20048;-82
2024/03/28 05:41:34;;;;;;;5.78;2.63;;;6.10;99.90;;;;;;5017497;28;20543;-81
2024/03/28 05:44:01;;;;;;;4.47;2.33;;;6.20;99.90;;;;;;5022936;28;20585;-82
2024/03/28 05:46:27;;;;;;;5.13;2.40;;;6.50;99.90;;;;;;5014578;28;20041;-82
2024/03/28 05:48:53;;;;;;;4.28;2.13;;;6.50;99.90;;;;;;5019568;28;20041;-81
2024/03/28 05:51:19;;;;;;;5.07;3.17;;;6.50;99.90;;;;;;5019649;28;20034;-84
2024/03/28 05:53:50;;;;;;;6.18;3.50;;;6.50;99.90;;;;;;5020634;28;20036;-81
2024/03/28 05:56:20;;;;;;;4.97;2.75;;;6.40;99.90;;;;;;5021184;28;21932;-82
2024/03/28 05:58:46;;;;;;;5.13;2.50;;;6.40;99.90;;;;;;5020683;28;20608;-83
2024/03/28 06:01:13;;;;;;;5.70;2.65;;;6.40;99.90;;;;;;5022055;28;20059;-82
2024/03/28 06:03:39;;;;;;;5.30;2.17;;;6.40;99.90;;;;;;5022338;28;20044;-82
2024/03/28 06:06:05;;;;;;;5.03;2.17;;;6.40;99.90;;;;;;5021973;28;20033;-83
2024/03/28 06:08:31;;;;;;;38.70;13.05;;;6.40;99.90;;;;;;5019236;28;20037;-83
2024/03/28 06:11:00;;;;;;;15.80;5.88;;;6.60;99.90;;;;;;5013011;28;20036;-82
2024/03/28 06:13:33;;;;;;;6.90;3.40;;;6.70;99.90;;;;;;5022152;28;20678;-82
2024/03/28 06:15:59;;;;;;;7.40;2.85;;;6.70;99.90;;;;;;5015835;28;20084;-82
2024/03/28 06:18:25;;;;;;;7.50;3.72;;;6.70;99.90;;;;;;5013516;28;20037;-81
2024/03/28 06:21:03;;;;;;;41.15;22.90;;;6.80;99.90;;;;;;5026998;28;20037;-81
2024/03/28 06:23:29;;;;;;;14.35;8.57;;;6.90;99.90;;;;;;5014170;28;20365;-82
2024/03/28 06:25:55;;;;;;;12.18;6.70;;;6.80;99.90;;;;;;5024376;28;20028;-82
2024/03/28 06:28:21;;;;;;;9.65;6.25;;;6.70;99.90;;;;;;5022155;28;20392;-82
2024/03/28 06:30:53;;;;;;;13.50;6.68;;;6.70;99.90;;;;;;5025158;28;20499;-83
2024/03/28 06:33:25;;;;;;;8.35;4.47;;;6.80;99.90;;;;;;5015887;28;20069;-82
2024/03/28 06:35:50;;;;;;;6.93;4.35;;;6.80;99.90;;;;;;5023703;28;20052;-81
2024/03/28 06:38:17;;;;;;;8.30;5.20;;;6.80;99.90;;;;;;5016656;28;20045;-81
2024/03/28 06:40:44;;;;;;;7.03;3.70;;;6.90;99.90;;;;;;5022623;28;20120;-80
2024/03/28 06:43:09;;;;;;;7.13;3.60;;;7.00;99.90;;;;;;5016322;28;20585;-81
2024/03/28 06:45:35;;;;;;;6.30;3.80;;;7.20;99.90;;;;;;5019389;28;20057;-81
2024/03/28 06:48:01;;;;;;;7.63;4.40;;;7.30;99.90;;;;;;5017740;28;20056;-80
2024/03/28 06:50:26;;;;;;;8.65;4.40;;;7.20;99.90;;;;;;5019679;28;20032;-80
2024/03/28 06:52:53;;;;;;;6.38;4.00;;;7.20;99.90;;;;;;5021606;28;20017;-80
2024/03/28 06:55:19;;;;;;;6.88;3.30;;;7.20;99.90;;;;;;5022794;28;20053;-79
2024/03/28 06:57:45;;;;;;;5.70;3.47;;;7.30;99.90;;;;;;5018431;28;20056;-82
2024/03/28 07:00:12;;;;;;;5.50;2.95;;;7.30;99.90;;;;;;5021173;28;20714;-81
2024/03/28 07:02:38;;;;;;;7.18;3.17;;;7.40;99.90;;;;;;5013660;28;20115;-81
2024/03/28 07:05:04;;;;;;;6.07;2.97;;;7.50;99.90;;;;;;5016054;28;20033;-81
2024/03/28 07:07:30;;;;;;;4.65;2.58;;;7.60;99.90;;;;;;5024299;28;20040;-81
2024/03/28 07:09:56;;;;;;;5.00;3.10;;;7.70;99.90;;;;;;5021832;28;20022;-80
2024/03/28 07:12:22;;;;;;;5.40;3.00;;;7.70;99.90;;;;;;5017281;28;20041;-82
2024/03/28 07:14:48;;;;;;;5.63;2.90;;;7.70;99.90;;;;;;5022046;28;20063;-81
2024/03/28 07:17:13;;;;;;;9.85;4.50;;;7.70;99.90;;;;;;5014691;28;20040;-82
2024/03/28 07:19:40;;;;;;;25.77;15.77;;;7.70;99.90;;;;;;5011790;28;20087;-81
2024/03/28 07:22:08;;;;;;;12.82;8.65;;;7.80;99.90;;;;;;5018387;28;20041;-83
2024/03/28 07:24:34;;;;;;;12.02;8.00;;;7.80;99.90;;;;;;5019831;28;20041;-81
2024/03/28 07:27:00;;;;;;;6.63;4.55;;;7.80;99.90;;;;;;5014343;28;20732;-78
2024/03/28 07:29:26;;;;;;;6.68;4.50;;;7.90;99.90;;;;;;5015957;28;20026;-79
2024/03/28 07:31:52;;;;;;;8.18;3.55;;;7.80;99.90;;;;;;5018341;28;20704;-80
2024/03/28 07:34:18;;;;;;;7.00;2.33;;;7.80;99.90;;;;;;5018117;28;20041;-79
2024/03/28 07:36:44;;;;;;;4.07;2.60;;;7.70;99.90;;;;;;5023397;28;20127;-79
2024/03/28 07:39:11;;;;;;;6.50;3.53;;;7.80;99.90;;;;;;5018024;28;20029;-81
2024/03/28 07:41:37;;;;;;;4.78;2.47;;;7.80;99.90;;;;;;5017427;28;20411;-80
2024/03/28 07:44:03;;;;;;;4.68;2.25;;;7.70;99.90;;;;;;5008838;28;20503;-80
2024/03/28 07:46:29;;;;;;;6.35;2.97;;;7.80;99.90;;;;;;5023846;28;20036;-79
2024/03/28 07:48:55;;;;;;;4.85;2.03;;;7.80;99.90;;;;;;5016732;28;20423;-79
2024/03/28 07:51:21;;;;;;;3.78;1.80;;;7.60;99.90;;;;;;5023893;28;20485;-80
2024/03/28 07:53:47;;;;;;;5.20;1.60;;;7.70;99.90;;;;;;5013237;28;20167;-80
2024/03/28 07:56:13;;;;;;;3.65;1.75;;;7.70;99.90;;;;;;5021308;28;21596;-81
2024/03/28 07:58:39;;;;;;;4.75;2.20;;;7.70;99.90;;;;;;5022252;28;20072;-81
2024/03/28 08:01:08;;;;;;;5.20;1.75;;;7.60;99.90;;;;;;5022673;28;20029;-80
2024/03/28 08:03:35;;;;;;;3.53;1.85;;;7.40;99.90;;;;;;5017466;28;20033;-81
2024/03/28 08:06:05;;;;;;;4.68;2.13;;;7.40;99.90;;;;;;5016697;28;20036;-81
2024/03/28 08:08:31;;;;;;;2.97;1.60;;;7.40;99.90;;;;;;5011277;28;20168;-82
2024/03/28 08:10:57;;;;;;;3.13;1.60;;;7.40;99.90;;;;;;5017488;28;20033;-81
2024/03/28 08:13:23;;;;;;;2.88;1.20;;;7.40;99.90;;;;;;5016851;28;20062;-81
2024/03/28 08:15:48;;;;;;;4.28;1.73;;;7.50;99.90;;;;;;5020592;28;20036;-81
2024/03/28 08:18:16;;;;;;;5.03;1.52;;;7.60;99.90;;;;;;5011373;28;20116;-82
2024/03/28 08:20:42;;;;;;;4.15;1.67;;;7.70;99.90;;;;;;5023231;28;20148;-80
2024/03/28 08:23:08;;;;;;;2.20;1.10;;;7.70;99.90;;;;;;5019929;28;20612;-81
2024/03/28 08:25:34;;;;;;;2.15;0.93;;;7.70;99.90;;;;;;5016963;28;20075;-81
2024/03/28 08:28:00;;;;;;;4.05;1.30;;;7.70;99.90;;;;;;5023473;28;20041;-82
2024/03/28 08:30:26;;;;;;;3.67;1.25;;;7.70;99.90;;;;;;5015260;28;20133;-80
2024/03/28 08:32:55;;;;;;;4.40;1.98;;;7.70;99.90;;;;;;5025670;28;20063;-82
2024/03/28 08:35:21;;;;;;;5.10;2.13;;;7.70;99.90;;;;;;5018847;28;20084;-82
2024/03/28 08:37:47;;;;;;;5.63;2.20;;;7.80;99.90;;;;;;5022678;28;20037;-81
2024/03/28 08:40:13;;;;;;;2.67;1.30;;;7.80;99.90;;;;;;5019107;28;20482;-81
2024/03/28 08:42:45;;;;;;;8.70;2.13;;;7.70;99.90;;;;;;5021433;28;20034;-81
2024/03/28 08:45:12;;;;;;;2.72;1.27;;;7.60;99.90;;;;;;5019366;28;20068;-81
2024/03/28 08:47:40;;;;;;;3.78;1.40;;;7.70;99.90;;;;;;5032783;28;20123;-81
2024/03/28 08:50:06;;;;;;;3.90;1.10;;;7.70;99.90;;;;;;5018395;28;20626;-81
2024/03/28 08:52:33;;;;;;;6.38;1.45;;;7.70;99.90;;;;;;5016533;28;20048;-81
2024/03/28 08:54:59;;;;;;;2.42;0.82;;;7.50;99.90;;;;;;5018281;28;20175;-82
2024/03/28 08:57:24;;;;;;;2.47;0.70;;;7.40;99.90;;;;;;5019589;28;20041;-83
2024/03/28 08:59:51;;;;;;;3.50;1.25;;;7.70;99.90;;;;;;5015910;28;20044;-81
2024/03/28 09:02:20;;;;;;;2.13;0.80;;;7.80;99.90;;;;;;5018079;28;20041;-80
2024/03/28 09:04:46;;;;;;;2.95;0.77;;;7.80;99.90;;;;;;5016577;28;20039;-82
2024/03/28 09:07:14;;;;;;;5.00;0.90;;;7.90;99.90;;;;;;5019124;28;20041;-84
2024/03/28 09:09:40;;;;;;;2.03;0.60;;;8.00;99.90;;;;;;5024226;28;20244;-80
2024/03/28 09:12:12;;;;;;;2.10;0.68;;;8.00;99.90;;;;;;5026500;28;20073;-80
2024/03/28 09:14:38;;;;;;;1.23;0.70;;;7.90;99.90;;;;;;5019755;28;20045;-80
2024/03/28 09:17:04;;;;;;;1.42;0.60;;;8.00;99.90;;;;;;5014315;28;20037;-78
2024/03/28 09:19:31;;;;;;;0.82;0.30;;;8.00;99.90;;;;;;5017820;28;20570;-79
2024/03/28 09:21:56;;;;;;;0.77;0.47;;;8.00;99.90;;;;;;5019068;28;20034;-78
2024/03/28 09:24:22;;;;;;;2.28;0.45;;;8.00;99.90;;;;;;5019342;28;20029;-82
2024/03/28 09:26:48;;;;;;;1.52;0.60;;;8.00;99.90;;;;;;5020170;28;20644;-81
2024/03/28 09:29:19;;;;;;;4.93;0.70;;;8.10;99.90;;;;;;5027812;28;20025;-81
2024/03/28 09:31:48;;;;;;;4.30;2.45;;;8.10;99.90;;;;;;5025074;28;20037;-80
2024/03/28 09:34:14;;;;;;;6.72;3.28;;;8.10;99.90;;;;;;5019868;28;20049;-83
2024/03/28 09:36:41;;;;;;;9.25;4.60;;;8.00;99.90;;;;;;5019826;28;21203;-82
2024/03/28 09:39:11;;;;;;;11.85;4.47;;;7.80;99.90;;;;;;5019250;28;20524;-81
2024/03/28 09:41:39;;;;;;;6.75;4.65;;;7.80;99.90;;;;;;5020114;28;20488;-82
2024/03/28 09:44:10;;;;;;;7.80;4.00;;;7.70;99.90;;;;;;5027412;28;20863;-83
2024/03/28 09:46:36;;;;;;;8.35;3.88;;;7.70;99.90;;;;;;5018075;28;20026;-82
2024/03/28 09:49:06;;;;;;;6.78;4.00;;;7.60;99.90;;;;;;5021364;28;20096;-81
2024/03/28 09:51:32;;;;;;;5.45;3.17;;;7.60;99.90;;;;;;5030304;28;20036;-82
2024/03/28 09:54:05;;;;;;;7.63;3.10;;;7.60;99.90;;;;;;5020089;28;20144;-83
2024/03/28 09:56:31;;;;;;;4.68;2.90;;;7.50;99.90;;;;;;5016734;28;20514;-81
2024/03/28 09:58:57;;;;;;;5.43;2.88;;;7.50;99.90;;;;;;5016330;28;20034;-80
2024/03/28 10:01:24;;;;;;;5.50;3.28;;;7.60;99.90;;;;;;5014708;28;20033;-80
2024/03/28 10:03:57;;;;;;;6.30;3.53;;;7.50;99.90;;;;;;5027789;28;20463;-80
2024/03/28 10:06:23;;;;;;;7.03;3.20;;;7.70;99.90;;;;;;5029815;28;20276;-82
2024/03/28 10:08:48;;;;;;;9.85;3.15;;;7.80;99.90;;;;;;5024783;28;20037;-81
2024/03/28 10:11:14;;;;;;;7.25;3.30;;;7.50;99.90;;;;;;5019792;28;20109;-82
2024/03/28 10:13:41;;;;;;;4.40;2.28;;;7.70;99.90;;;;;;5023465;28;20033;-79
2024/03/28 10:16:07;;;;;;;6.05;2.88;;;7.70;99.90;;;;;;5022860;28;20459;-79
2024/03/28 10:18:33;;;;;;;4.72;2.60;;;8.00;99.90;;;;;;5024193;28;20118;-79
2024/03/28 10:21:02;;;;;;;5.15;3.45;;;8.00;99.90;;;;;;5022493;28;20037;-80
2024/03/28 10:23:28;;;;;;;7.63;3.15;;;8.00;99.90;;;;;;5022645;28;20119;-81
2024/03/28 10:25:54;;;;;;;6.72;3.03;;;7.80;99.90;;;;;;5023415;28;20498;-82
2024/03/28 10:28:24;;;;;;;6.68;2.55;;;7.80;99.90;;;;;;5018616;28;20033;-79
2024/03/28 10:30:51;;;;;;;5.20;3.13;;;7.90;99.90;;;;;;5023268;28;20083;-82
2024/03/28 10:33:17;;;;;;;6.60;3.13;;;7.90;99.90;;;;;;5020051;28;20041;-82
2024/03/28 10:35:54;;;;;;;8.38;2.30;;;7.70;99.90;;;;;;5026820;28;21338;-83
2024/03/28 10:38:20;;;;;;;6.07;3.40;;;7.80;99.90;;;;;;5026229;28;20119;-82
2024/03/28 10:40:48;;;;;;;4.45;2.33;;;7.90;99.90;;;;;;5021341;28;20442;-82
2024/03/28 10:43:16;;;;;;;4.60;2.30;;;8.00;99.90;;;;;;5019567;28;20034;-81
2024/03/28 10:45:44;;;;;;;3.17;1.65;;;8.00;99.90;;;;;;5017288;28;20174;-82
2024/03/28 10:48:16;;;;;;;6.70;2.58;;;8.10;99.90;;;;;;5023550;28;20048;-83
2024/03/28 10:51:08;;;;;;;5.93;2.58;;;8.20;99.90;;;;;;5019885;28;20105;-80
2024/03/28 10:54:01;;;;;;;5.55;2.83;;;8.10;99.90;;;;;;5023607;28;20045;-81
2024/03/28 10:56:30;;;;;;;6.30;2.40;;;7.90;99.90;;;;;;5020841;28;20139;-81
2024/03/28 10:58:59;;;;;;;6.03;2.22;;;7.70;99.90;;;;;;5021438;28;20064;-81
2024/03/28 11:01:27;;;;;;;4.65;1.90;;;7.60;99.90;;;;;;5024938;28;20392;-89
2024/03/28 11:04:01;;;;;;;55.38;27.65;;;7.60;99.90;;;;;;5018402;28;20427;-80
2024/03/28 11:06:27;;;;;;;36.90;19.15;;;7.70;99.90;;;;;;5017852;28;20099;-82
2024/03/28 11:09:02;;;;;;;18.98;10.18;;;7.70;99.90;;;;;;5022265;28;20616;-82
2024/03/28 11:11:30;;;;;;;13.23;6.82;;;7.60;99.90;;;;;;5020688;28;20556;-83
2024/03/28 11:13:56;;;;;;;40.92;20.63;;;7.60;99.90;;;;;;5018342;28;20488;-82
2024/03/28 11:16:23;;;;;;;105.78;52.50;;;7.60;99.90;;;;;;5015019;28;20037;-82
2024/03/28 11:18:49;;;;;;;24.30;11.50;;;7.70;99.90;;;;;;5022252;28;20123;-82
2024/03/28 11:21:28;;;;;;;12.88;7.30;;;7.60;99.90;;;;;;5023671;28;20037;-81
2024/03/28 11:23:54;;;;;;;9.95;4.97;;;7.60;99.90;;;;;;5024271;28;20089;-82
2024/03/28 11:26:25;;;;;;;8.20;3.88;;;7.60;99.90;;;;;;5019245;28;20034;-84
2024/03/28 11:29:00;;;;;;;6.03;2.55;;;7.60;99.90;;;;;;5019236;28;20055;-81
2024/03/28 11:31:27;;;;;;;4.80;2.63;;;7.70;99.90;;;;;;5015563;28;20134;-83
2024/03/28 11:34:03;;;;;;;4.13;1.75;;;7.70;99.90;;;;;;5017173;28;20032;-81
2024/03/28 11:36:31;;;;;;;4.85;1.70;;;7.60;99.90;;;;;;5016814;28;21234;-82
2024/03/28 11:38:57;;;;;;;3.33;1.42;;;7.60;99.90;;;;;;5014470;28;20061;-86
2024/03/28 11:41:24;;;;;;;3.40;1.45;;;7.50;99.90;;;;;;5015144;28;20136;-81
2024/03/28 11:43:51;;;;;;;2.13;1.15;;;7.50;99.90;;;;;;5022255;28;20045;-81
2024/03/28 11:46:18;;;;;;;2.33;1.15;;;7.60;99.90;;;;;;5022736;28;20464;-82
2024/03/28 11:48:44;;;;;;;3.00;1.17;;;7.50;99.90;;;;;;5020467;28;20029;-82
2024/03/28 11:51:10;;;;;;;4.80;1.30;;;7.50;99.90;;;;;;5018762;28;20041;-87
2024/03/28 11:53:38;;;;;;;1.65;0.90;;;7.50;99.90;;;;;;5017652;28;20117;-84
2024/03/28 11:56:05;;;;;;;3.58;1.38;;;7.50;99.90;;;;;;5020590;28;20041;-79
2024/03/28 11:58:31;;;;;;;3.20;1.35;;;7.70;99.90;;;;;;5017707;28;20041;-79
2024/03/28 12:00:59;;;;;;;3.10;1.25;;;7.70;99.90;;;;;;5020005;28;20419;-81
2024/03/28 12:03:25;;;;;;;3.00;1.00;;;7.70;99.90;;;;;;5028424;28;21429;-82
2024/03/28 12:05:52;;;;;;;1.90;0.98;;;7.70;99.90;;;;;;5018750;28;20056;-83
2024/03/28 12:08:27;;;;;;;10.10;5.47;;;7.80;99.90;;;;;;5022333;28;20065;-84
2024/03/28 12:11:02;;;;;;;5.05;3.17;;;7.90;99.90;;;;;;5029877;28;20070;-82
2024/03/28 12:13:29;;;;;;;6.47;3.10;;;8.10;99.90;;;;;;5016656;28;20056;-83
2024/03/28 12:15:57;;;;;;;5.40;2.00;;;8.00;99.90;;;;;;5021308;28;20045;-81
2024/03/28 12:18:23;;;;;;;4.68;2.50;;;8.00;99.90;;;;;;5018369;28;20037;-82
2024/03/28 12:20:56;;;;;;;4.88;1.80;;;8.00;99.90;;;;;;5018536;28;20048;-79
2024/03/28 12:23:22;;;;;;;6.03;2.97;;;7.90;99.90;;;;;;5015536;28;20128;-81
2024/03/28 12:25:48;;;;;;;5.07;2.90;;;7.80;99.90;;;;;;5022577;28;20480;-80
2024/03/28 12:28:18;;;;;;;5.47;3.58;;;7.60;99.90;;;;;;5014554;28;20628;-81
2024/03/28 12:30:51;;;;;;;4.97;2.83;;;7.50;99.90;;;;;;5019517;28;20095;-79
2024/03/28 12:33:18;;;;;;;6.63;3.90;;;7.50;99.90;;;;;;5019118;28;20126;-82
2024/03/28 12:35:44;;;;;;;5.90;4.13;;;7.80;99.90;;;;;;5011172;28;20149;-81
2024/03/28 12:38:19;;;;;;;7.30;3.55;;;7.50;99.90;;;;;;5012218;28;20025;-82
2024/03/28 12:40:50;;;;;;;4.82;2.90;;;7.70;99.90;;;;;;5014904;28;20047;-82
2024/03/28 12:43:21;;;;;;;5.35;3.80;;;7.90;99.90;;;;;;5023521;28;20037;-81
2024/03/28 12:45:48;;;;;;;19.88;9.23;;;8.00;99.90;;;;;;5023142;28;20057;-80
2024/03/28 12:48:14;;;;;;;11.95;5.13;;;8.00;99.90;;;;;;5017726;28;20130;-80
2024/03/28 12:50:44;;;;;;;7.95;3.33;;;8.00;99.90;;;;;;5023189;28;20060;-81
2024/03/28 12:53:11;;;;;;;5.05;2.45;;;7.90;99.90;;;;;;5017006;28;20065;-81
2024/03/28 12:55:37;;;;;;;4.68;2.40;;;8.00;99.90;;;;;;5018842;28;20041;-80
2024/03/28 12:58:03;;;;;;;4.60;3.05;;;7.80;99.90;;;;;;5032223;28;20488;-82
2024/03/28 13:00:28;;;;;;;7.68;4.50;;;7.70;99.90;;;;;;5014424;28;20126;-82